Time;durP1;ratioP1;P1;durP2;ratioP2;P2;SDS_P1;SDS_P2;PMS_P1;PMS_P2;Temp;Humidity;BMP_temperature;BMP_pressure;BME280_temperature;BME280_humidity;BME280_pressure;Samples;Min_cycle;Max_cycle;Signal;HPM_P1;HPM_P2
2022/07/01 00:01:46;;;;;;;4.50;4.00;;;;;;;23.66;56.12;100462.79;117351;1184;23475;-62
2022/07/01 00:04:13;;;;;;;4.10;3.70;;;;;;;23.67;56.12;100461.82;117376;1185;22642;-62
2022/07/01 00:06:41;;;;;;;6.40;4.10;;;;;;;23.65;56.38;100461.45;117376;1185;23557;-62
2022/07/01 00:09:08;;;;;;;5.30;4.40;;;;;;;23.62;56.38;100459.64;117334;1185;23546;-63
2022/07/01 00:11:35;;;;;;;4.90;3.80;;;;;;;23.60;56.39;100458.67;117441;1185;23554;-48
2022/07/01 00:14:03;;;;;;;6.10;4.50;;;;;;;23.60;56.48;100461.34;117356;1186;24236;-48
2022/07/01 00:16:30;;;;;;;5.50;3.80;;;;;;;23.61;56.30;100461.64;117413;1185;23475;-50
2022/07/01 00:18:57;;;;;;;4.70;4.10;;;;;;;23.63;56.36;100461.53;117375;1185;22486;-48
2022/07/01 00:21:24;;;;;;;4.30;3.80;;;;;;;23.63;56.29;100462.27;117352;1184;23448;-63
2022/07/01 00:23:51;;;;;;;4.40;4.00;;;;;;;23.63;56.33;100459.41;117323;1185;23474;-62
2022/07/01 00:26:19;;;;;;;4.30;3.90;;;;;;;23.63;56.42;100458.50;117382;1185;24172;-62
2022/07/01 00:28:46;;;;;;;7.10;3.90;;;;;;;23.61;56.34;100459.00;117388;1185;24172;-48
2022/07/01 00:31:13;;;;;;;4.10;3.60;;;;;;;23.58;56.30;100454.83;117373;1185;24272;-48
2022/07/01 00:33:40;;;;;;;4.90;4.40;;;;;;;23.57;56.35;100454.05;117394;1185;23650;-48
2022/07/01 00:36:07;;;;;;;5.00;4.20;;;;;;;23.56;56.38;100460.51;117304;1185;24162;-62
2022/07/01 00:38:35;;;;;;;5.70;3.70;;;;;;;23.51;56.40;100460.50;117314;1188;24162;-48
2022/07/01 00:41:02;;;;;;;6.50;4.30;;;;;;;23.48;56.45;100456.26;117373;1185;23576;-48
2022/07/01 00:43:34;;;;;;;5.00;3.60;;;;;;;23.45;56.60;100455.69;117332;1185;23662;-63
2022/07/01 00:46:24;;;;;;;6.30;3.90;;;;;;;23.43;56.58;100454.07;117300;1186;23455;-63
2022/07/01 00:48:56;;;;;;;5.00;3.90;;;;;;;23.39;56.72;100451.96;117397;1185;23764;-48
2022/07/01 00:51:23;;;;;;;7.50;4.30;;;;;;;23.38;56.89;100450.27;117401;1185;24281;-62
2022/07/01 00:53:50;;;;;;;7.20;4.10;;;;;;;23.34;56.96;100442.29;117358;1185;23569;-48
2022/07/01 00:56:17;;;;;;;6.60;4.00;;;;;;;23.28;56.88;100442.46;117329;1186;23611;-63
2022/07/01 00:58:45;;;;;;;6.30;3.90;;;;;;;23.24;56.87;100443.62;117335;1185;23016;-63
2022/07/01 01:01:12;;;;;;;4.30;3.60;;;;;;;23.26;57.01;100446.73;117368;1185;21861;-62
2022/07/01 01:03:41;;;;;;;11.80;4.40;;;;;;;23.26;56.87;100448.16;117387;1185;24242;-48
2022/07/01 01:06:09;;;;;;;4.50;3.70;;;;;;;23.24;56.82;100443.48;117328;1185;22880;-48
2022/07/01 01:08:38;;;;;;;;;;;;;;;23.21;56.80;100440.38;117353;1185;22925;-48
2022/07/01 01:11:06;;;;;;;7.30;4.40;;;;;;;23.18;56.80;100440.73;117328;1185;21907;-63
2022/07/01 01:13:35;;;;;;;4.90;3.40;;;;;;;23.18;56.86;100438.45;117139;1186;23555;-62
2022/07/01 01:16:02;;;;;;;4.20;3.80;;;;;;;23.12;56.90;100439.02;117375;1185;22220;-63
2022/07/01 01:18:29;;;;;;;5.60;4.10;;;;;;;23.14;56.84;100440.81;117350;1184;23566;-49
2022/07/01 01:20:56;;;;;;;6.00;3.60;;;;;;;23.08;56.85;100446.39;117418;1185;24229;-63
2022/07/01 01:23:23;;;;;;;7.20;4.10;;;;;;;23.03;56.89;100448.86;117402;1185;24169;-49
2022/07/01 01:25:51;;;;;;;4.90;3.90;;;;;;;22.99;56.97;100451.41;117121;1187;23558;-63
2022/07/01 01:28:18;;;;;;;4.60;3.80;;;;;;;22.92;57.11;100452.77;117336;1185;24204;-49
2022/07/01 01:30:46;;;;;;;3.80;3.40;;;;;;;22.88;57.17;100450.15;117447;1185;23487;-63
2022/07/01 01:33:12;;;;;;;5.70;3.90;;;;;;;22.89;57.21;100448.27;117495;1185;23508;-63
2022/07/01 01:35:40;;;;;;;4.60;3.90;;;;;;;22.91;57.12;100449.83;117332;1182;21862;-49
2022/07/01 01:38:08;;;;;;;4.80;4.00;;;;;;;22.93;57.13;100448.23;117398;1185;21850;-49
2022/07/01 01:40:35;;;;;;;5.70;3.70;;;;;;;22.95;57.12;100447.61;117452;1185;24182;-63
2022/07/01 01:43:02;;;;;;;5.30;3.70;;;;;;;22.94;57.11;100442.79;117334;1185;24224;-63
2022/07/01 01:45:30;;;;;;;4.70;3.80;;;;;;;22.94;57.02;100447.47;117361;1185;21986;-63
2022/07/01 01:47:57;;;;;;;5.80;4.00;;;;;;;22.93;57.18;100445.58;117369;1185;23551;-49
2022/07/01 01:50:24;;;;;;;4.20;3.80;;;;;;;22.93;56.93;100451.30;117381;1184;23490;-63
2022/07/01 01:52:51;;;;;;;5.10;3.90;;;;;;;22.92;56.96;100451.20;117366;1185;24236;-49
2022/07/01 01:55:18;;;;;;;6.40;3.90;;;;;;;22.89;57.11;100456.89;117395;1185;24170;-63
2022/07/01 01:57:45;;;;;;;7.00;4.50;;;;;;;22.88;57.03;100455.85;117422;1184;23459;-63
2022/07/01 02:00:13;;;;;;;4.90;4.30;;;;;;;22.90;57.04;100454.89;117470;1185;23598;-50
2022/07/01 02:02:40;;;;;;;5.80;4.30;;;;;;;22.90;57.15;100457.03;117423;1185;21899;-50
2022/07/01 02:05:10;;;;;;;5.60;4.50;;;;;;;22.89;57.12;100456.73;117380;1185;24627;-64
2022/07/01 02:07:38;;;;;;;4.50;4.00;;;;;;;22.88;57.22;100455.70;117459;1180;21852;-63
2022/07/01 02:10:05;;;;;;;5.30;4.60;;;;;;;22.80;57.33;100459.77;117457;1185;22829;-49
2022/07/01 02:12:32;;;;;;;6.30;4.40;;;;;;;22.74;57.61;100468.73;117502;1185;21845;-63
2022/07/01 02:15:00;;;;;;;5.00;4.40;;;;;;;22.72;57.71;100468.31;117418;1186;24200;-63
2022/07/01 02:17:27;;;;;;;6.40;5.20;;;;;;;22.71;57.71;100472.15;117446;1184;24162;-64
2022/07/01 02:19:55;;;;;;;6.80;4.90;;;;;;;22.72;57.79;100475.88;117418;1185;23579;-63
2022/07/01 02:22:21;;;;;;;7.60;5.50;;;;;;;22.72;57.80;100479.59;117326;1185;21857;-49
2022/07/01 02:24:48;;;;;;;8.90;4.90;;;;;;;22.72;57.96;100479.39;117384;1185;23469;-55
2022/07/01 02:27:15;;;;;;;6.70;5.00;;;;;;;22.72;57.93;100479.37;117407;1185;23542;-49
2022/07/01 02:29:42;;;;;;;7.00;5.40;;;;;;;22.73;57.96;100475.58;117364;1185;23461;-50
2022/07/01 02:32:10;;;;;;;6.50;5.40;;;;;;;22.74;57.95;100472.27;117409;1185;23557;-49
2022/07/01 02:34:37;;;;;;;7.30;5.10;;;;;;;22.77;58.13;100475.35;117307;1186;23464;-49
2022/07/01 02:37:04;;;;;;;6.60;5.50;;;;;;;22.79;57.97;100471.48;117314;1185;23576;-64
2022/07/01 02:39:33;;;;;;;6.80;5.00;;;;;;;22.80;58.03;100473.02;117267;1185;24236;-60
2022/07/01 02:44:48;;;;;;;6.10;5.50;;;;;;;22.85;58.08;100474.87;117318;1185;24233;-49
2022/07/01 02:47:15;;;;;;;7.40;5.60;;;;;;;22.82;58.17;100475.91;117291;1181;22926;-64
2022/07/01 02:49:42;;;;;;;7.80;6.30;;;;;;;22.86;58.34;100479.98;117395;1186;23552;-63
2022/07/01 02:52:10;;;;;;;12.30;6.90;;;;;;;22.94;58.20;100480.04;117305;1186;21867;-49
2022/07/01 02:54:37;;;;;;;10.00;6.70;;;;;;;23.00;58.01;100485.34;117372;1186;21857;-63
2022/07/01 02:57:04;;;;;;;16.10;7.00;;;;;;;22.97;58.16;100488.77;117321;1186;23650;-48
2022/07/01 02:59:31;;;;;;;7.00;6.30;;;;;;;22.95;58.35;100491.98;117358;1186;24179;-63
2022/07/01 03:01:59;;;;;;;11.10;7.90;;;;;;;22.95;58.55;100491.77;117327;1186;23539;-63
2022/07/01 03:04:26;;;;;;;7.50;6.80;;;;;;;23.04;58.28;100488.73;117274;1185;23567;-63
2022/07/01 03:06:55;;;;;;;9.50;7.50;;;;;;;23.03;58.22;100486.08;117277;1186;24149;-63
2022/07/01 03:09:22;;;;;;;10.50;7.90;;;;;;;23.03;58.54;100489.83;117394;1186;21940;-62
2022/07/01 03:11:50;;;;;;;8.20;7.40;;;;;;;23.06;58.73;100489.30;117322;1186;23553;-63
2022/07/01 03:14:17;;;;;;;9.40;8.40;;;;;;;23.13;58.64;100489.90;117348;1186;23527;-63
2022/07/01 03:16:46;;;;;;;12.80;8.50;;;;;;;23.13;58.71;100492.77;117212;1185;23557;-48
2022/07/01 03:19:18;;;;;;;9.40;8.20;;;;;;;23.16;58.58;100496.36;117039;1187;22090;-61
2022/07/01 03:21:46;;;;;;;9.50;8.10;;;;;;;23.21;58.67;100496.98;117366;1185;22626;-62
2022/07/01 03:24:13;;;;;;;9.90;8.80;;;;;;;23.26;58.82;100495.44;117316;1185;21865;-62
2022/07/01 03:26:39;;;;;;;11.80;9.00;;;;;;;23.36;58.70;100501.98;117397;1186;23002;-63
2022/07/01 03:29:06;;;;;;;11.30;8.90;;;;;;;23.38;58.88;100504.48;117365;1185;24168;-62
2022/07/01 03:31:33;;;;;;;11.20;9.80;;;;;;;23.44;58.63;100506.78;117269;1186;23955;-48
2022/07/01 03:34:01;;;;;;;13.60;9.20;;;;;;;23.42;58.97;100511.02;117930;1186;23566;-62
2022/07/01 03:36:29;;;;;;;12.70;10.60;;;;;;;23.44;59.40;100513.05;117151;1186;23656;-61
2022/07/01 03:38:55;;;;;;;11.90;10.70;;;;;;;23.51;59.35;100514.28;117295;1185;23576;-61
2022/07/01 03:41:22;;;;;;;12.60;10.80;;;;;;;23.56;59.38;100520.20;117432;1184;24229;-49
2022/07/01 03:43:49;;;;;;;12.60;11.40;;;;;;;23.62;59.30;100520.73;117419;1185;22077;-62
2022/07/01 03:46:17;;;;;;;12.60;11.30;;;;;;;23.69;59.28;100523.13;117302;1186;24853;-48
2022/07/01 03:48:44;;;;;;;14.10;10.20;;;;;;;23.74;59.32;100520.07;117419;1185;24213;-48
2022/07/01 03:51:12;;;;;;;17.20;11.40;;;;;;;23.84;59.06;100520.71;117361;1184;23471;-48
2022/07/01 03:56:25;;;;;;;13.10;11.20;;;;;;;23.90;59.19;100523.50;117347;1185;24698;-48
2022/07/01 03:58:52;;;;;;;12.40;10.40;;;;;;;23.97;59.22;100522.22;117349;1185;22515;-49
2022/07/01 04:01:20;;;;;;;13.20;11.00;;;;;;;24.08;59.03;100525.81;117276;1182;24175;-48
2022/07/01 04:03:48;;;;;;;13.80;11.20;;;;;;;24.16;59.19;100523.29;117344;1185;22809;-48
2022/07/01 04:06:16;;;;;;;12.10;11.00;;;;;;;24.25;59.24;100521.75;117382;1185;22106;-59
2022/07/01 04:08:45;;;;;;;13.20;11.90;;;;;;;24.35;59.16;100526.85;117368;1184;24233;-61
2022/07/01 04:11:12;;;;;;;14.10;11.50;;;;;;;24.40;59.00;100534.07;117356;1185;23489;-48
2022/07/01 04:13:39;;;;;;;12.60;11.30;;;;;;;24.45;59.07;100536.73;117343;1185;21922;-51
2022/07/01 04:16:06;;;;;;;13.60;11.80;;;;;;;24.53;59.08;100538.92;117319;1185;24159;-48
2022/07/01 04:18:33;;;;;;;12.90;11.50;;;;;;;24.62;59.21;100535.23;117365;1185;23541;-47
2022/07/01 04:23:47;;;;;;;16.10;14.50;;;;;;;24.79;58.82;100538.23;117716;1185;23586;-48
2022/07/01 04:26:16;;;;;;;12.10;10.90;;;;;;;24.89;58.85;100543.30;117305;1185;23579;-59
2022/07/01 04:29:03;;;;;;;11.70;10.50;;;;;;;24.97;58.86;100546.33;117338;1185;23576;-48
2022/07/01 04:31:31;;;;;;;12.10;11.00;;;;;;;25.03;58.79;100547.11;117412;1185;23555;-48
2022/07/01 04:33:59;;;;;;;12.10;11.00;;;;;;;25.11;58.75;100552.55;117312;1185;23576;-59
2022/07/01 04:36:26;;;;;;;11.70;10.40;;;;;;;25.16;58.45;100552.52;117350;1185;23557;-48
2022/07/01 04:38:53;;;;;;;11.50;9.30;;;;;;;25.20;58.39;100553.33;117346;1185;21865;-59
2022/07/01 04:44:06;;;;;;;13.40;10.10;;;;;;;25.28;58.27;100553.82;117369;1185;23859;-56
2022/07/01 04:46:34;;;;;;;10.30;8.90;;;;;;;25.33;58.30;100555.77;117332;1185;24199;-48
2022/07/01 04:49:01;;;;;;;13.50;9.10;;;;;;;25.42;58.44;100555.17;117367;1185;23554;-59
2022/07/01 04:51:29;;;;;;;10.50;8.60;;;;;;;25.52;58.36;100554.13;117380;1185;23647;-59
2022/07/01 04:53:55;;;;;;;10.90;8.20;;;;;;;25.59;58.16;100550.92;117342;1185;22924;-48
2022/07/01 04:56:23;;;;;;;15.20;8.20;;;;;;;25.65;57.90;100551.56;117296;1185;24242;-48
2022/07/01 04:58:51;;;;;;;9.90;8.70;;;;;;;25.70;58.13;100551.40;117334;1185;23542;-59
2022/07/01 05:01:18;;;;;;;10.60;7.50;;;;;;;25.77;58.10;100549.64;117374;1185;23644;-58
2022/07/01 05:03:45;;;;;;;12.20;7.90;;;;;;;25.84;57.83;100544.80;117249;1186;23586;-49
2022/07/01 05:06:13;;;;;;;11.50;8.60;;;;;;;25.92;57.98;100544.92;117287;1186;21888;-49
2022/07/01 05:08:41;;;;;;;9.70;8.20;;;;;;;26.02;57.84;100546.88;117347;1185;23579;-48
2022/07/01 05:11:08;;;;;;;10.40;7.70;;;;;;;26.10;57.55;100549.48;117371;1185;23571;-48
2022/07/01 05:13:35;;;;;;;9.00;7.30;;;;;;;26.18;57.51;100553.63;117363;1185;24169;-49
2022/07/01 05:16:03;;;;;;;10.80;7.90;;;;;;;26.28;57.55;100558.61;117336;1185;23550;-59
2022/07/01 08:06:12;;;;;;;5.70;4.70;;;;;;;34.87;47.87;100566.27;115259;1202;547697;-55
2022/07/01 08:08:39;;;;;;;12.70;4.20;;;;;;;36.70;44.11;100563.02;116756;1191;21868;-55
2022/07/01 08:11:06;;;;;;;6.90;3.90;;;;;;;36.84;44.04;100557.79;116798;1191;22967;-54
2022/07/01 08:13:33;;;;;;;7.10;4.20;;;;;;;36.95;43.92;100560.65;116655;1188;21866;-55
2022/07/01 08:16:00;;;;;;;6.10;4.10;;;;;;;37.13;42.81;100558.56;116721;1191;21861;-55
2022/07/01 08:18:27;;;;;;;6.30;3.90;;;;;;;37.35;42.84;100556.45;116696;1189;22707;-54
2022/07/01 08:20:54;;;;;;;6.70;3.90;;;;;;;37.49;42.63;100551.48;117047;1189;24140;-55
2022/07/01 08:23:21;;;;;;;4.90;4.00;;;;;;;37.62;42.33;100548.98;117007;1188;23018;-55
2022/07/01 08:25:49;;;;;;;8.00;4.00;;;;;;;37.77;42.19;100545.43;117089;1186;23439;-56
2022/07/01 08:28:16;;;;;;;5.50;4.00;;;;;;;37.96;41.90;100547.85;117010;1186;23566;-55
2022/07/01 08:30:44;;;;;;;7.60;3.70;;;;;;;38.15;41.66;100547.36;117009;1188;22068;-57
2022/07/01 08:33:11;;;;;;;7.70;4.00;;;;;;;38.35;40.88;100549.14;117021;1189;21894;-55
2022/07/01 08:35:38;;;;;;;5.30;3.80;;;;;;;38.50;40.76;100551.23;116962;1189;23631;-55
2022/07/01 08:38:06;;;;;;;8.10;4.10;;;;;;;38.67;40.34;100548.91;117091;1188;21864;-55
2022/07/01 08:40:33;;;;;;;7.80;4.10;;;;;;;38.85;40.35;100549.67;117045;1188;22834;-55
2022/07/01 08:43:02;;;;;;;9.60;3.50;;;;;;;39.00;40.13;100554.66;116931;1185;23649;-56
2022/07/01 08:45:30;;;;;;;6.30;3.80;;;;;;;39.11;39.52;100547.20;117079;1186;22896;-56
2022/07/01 08:48:00;;;;;;;5.50;3.30;;;;;;;39.19;39.39;100545.05;117040;1188;24002;-55
2022/07/01 08:50:29;;;;;;;5.70;3.40;;;;;;;39.37;39.24;100547.64;117045;1186;22633;-55
2022/07/01 08:52:56;;;;;;;7.90;3.90;;;;;;;39.59;38.79;100554.00;117052;1189;21957;-55
2022/07/01 08:55:23;;;;;;;8.60;4.00;;;;;;;39.76;38.22;100555.72;117187;1185;21866;-56
2022/07/01 08:57:51;;;;;;;8.00;3.60;;;;;;;39.77;37.70;100556.86;117068;1186;22902;-56
2022/07/01 09:00:18;;;;;;;6.00;3.60;;;;;;;39.76;37.60;100549.98;117231;1186;22957;-55
2022/07/01 09:02:56;;;;;;;6.40;3.60;;;;;;;39.88;37.61;100552.74;117041;1186;21870;-54
2022/07/01 09:05:24;;;;;;;6.10;3.80;;;;;;;39.98;37.30;100554.75;117038;1189;21882;-55
2022/07/01 09:07:59;;;;;;;4.90;3.30;;;;;;;40.02;37.10;100550.68;117047;1189;22918;-56
2022/07/01 09:10:27;;;;;;;6.90;3.60;;;;;;;40.09;36.87;100547.34;117043;1186;21931;-55
2022/07/01 09:12:54;;;;;;;5.30;3.30;;;;;;;40.25;36.50;100545.33;117236;1189;23545;-56
2022/07/01 09:15:29;;;;;;;5.40;3.10;;;;;;;40.43;36.23;100542.29;117221;1186;24154;-56
2022/07/01 09:18:12;;;;;;;5.70;3.10;;;;;;;40.50;36.06;100539.83;117053;1184;22924;-56
2022/07/01 09:20:41;;;;;;;10.00;3.50;;;;;;;40.63;35.58;100540.96;117355;1185;21875;-56
2022/07/01 09:23:15;;;;;;;5.70;3.10;;;;;;;40.77;35.05;100541.00;117265;1186;21925;-55
2022/07/01 09:25:50;;;;;;;7.40;3.00;;;;;;;40.95;35.12;100539.85;117349;1182;22745;-54
2022/07/01 09:28:25;;;;;;;4.80;3.20;;;;;;;41.22;34.75;100539.48;117406;1185;21883;-54
2022/07/01 09:30:54;;;;;;;6.70;3.40;;;;;;;41.33;34.36;100533.63;117349;1185;21862;-56
2022/07/01 09:33:23;;;;;;;4.50;3.20;;;;;;;41.40;34.38;100533.36;117308;1186;21857;-56
2022/07/01 09:35:51;;;;;;;4.50;3.20;;;;;;;41.42;34.04;100533.20;117409;1185;21883;-55
2022/07/01 09:38:20;;;;;;;7.30;3.30;;;;;;;41.41;33.99;100533.80;117424;1183;22699;-55
2022/07/01 09:41:01;;;;;;;8.80;3.80;;;;;;;41.43;33.54;100531.66;117323;1185;21891;-56
2022/07/01 09:43:33;;;;;;;6.20;3.70;;;;;;;41.27;33.13;100529.06;117494;1182;21970;-56
2022/07/01 09:46:04;;;;;;;5.80;3.20;;;;;;;41.13;32.85;100529.45;117294;1186;22667;-56
2022/07/01 09:48:34;;;;;;;6.30;3.70;;;;;;;41.16;33.34;100532.51;117457;1185;22859;-55
2022/07/01 09:51:02;;;;;;;7.60;3.50;;;;;;;41.30;33.30;100531.98;117430;1183;22902;-56
2022/07/01 09:53:29;;;;;;;5.10;3.70;;;;;;;41.48;32.87;100529.86;117503;1185;21842;-55
2022/07/01 09:55:57;;;;;;;4.60;3.80;;;;;;;41.58;32.51;100529.91;117373;1186;22615;-55
2022/07/01 09:58:25;;;;;;;7.70;3.60;;;;;;;41.62;32.44;100529.50;117287;1186;22939;-55
2022/07/01 10:00:53;;;;;;;6.40;3.50;;;;;;;41.67;32.45;100527.15;117372;1185;22912;-54
2022/07/01 10:03:20;;;;;;;7.10;3.50;;;;;;;41.79;32.24;100522.59;117988;1185;22119;-56
2022/07/01 10:05:54;;;;;;;5.40;3.40;;;;;;;41.95;31.90;100524.40;117371;1185;21851;-56
2022/07/01 10:09:12;;;;;;;8.50;3.40;;;;;;;42.15;31.57;100525.15;117393;1182;21853;-56
2022/07/01 10:11:42;;;;;;;7.60;4.00;;;;;;;42.30;31.37;100523.92;117200;1188;22618;-56
2022/07/01 10:14:11;;;;;;;8.50;4.50;;;;;;;42.42;31.06;100524.10;117401;1185;22715;-56
2022/07/01 10:16:38;;;;;;;6.30;3.70;;;;;;;42.50;30.53;100524.79;117370;1185;21890;-54
2022/07/01 10:19:25;;;;;;;4.30;3.30;;;;;;;42.59;30.40;100525.69;117332;1184;21929;-55
2022/07/01 10:21:56;;;;;;;8.60;3.60;;;;;;;42.62;30.36;100526.40;117279;1186;22905;-56
2022/07/01 10:24:24;;;;;;;5.70;3.60;;;;;;;42.68;30.00;100527.07;117423;1185;21915;-54
2022/07/01 10:26:51;;;;;;;6.80;4.00;;;;;;;42.72;29.81;100522.04;117362;1185;21920;-57
2022/07/01 10:29:28;;;;;;;5.30;3.90;;;;;;;42.78;29.87;100520.30;117303;1185;22934;-56
2022/07/01 10:32:02;;;;;;;4.10;3.60;;;;;;;42.85;29.61;100516.86;117387;1185;23580;-56
2022/07/01 10:34:37;;;;;;;5.80;3.60;;;;;;;42.87;29.46;100517.23;117270;1186;21855;-55
2022/07/01 10:37:09;;;;;;;4.40;4.00;;;;;;;42.90;29.12;100517.05;117353;1186;24908;-54
2022/07/01 10:40:01;;;;;;;6.10;4.00;;;;;;;42.84;28.85;100509.72;117335;1185;22769;-54
2022/07/01 10:42:32;;;;;;;6.20;3.60;;;;;;;42.83;28.99;100508.85;117327;1183;23123;-56
2022/07/01 10:45:03;;;;;;;7.10;3.80;;;;;;;42.93;28.47;100506.43;117376;1186;22911;-55
2022/07/01 10:47:31;;;;;;;5.10;3.50;;;;;;;42.84;27.92;100500.60;117338;1183;22112;-55
2022/07/01 10:50:11;;;;;;;5.50;4.00;;;;;;;42.75;28.13;100500.95;117412;1183;22988;-55
2022/07/01 10:52:39;;;;;;;6.30;4.10;;;;;;;42.70;28.00;100496.41;117240;1187;21993;-55
2022/07/01 10:55:08;;;;;;;5.00;3.40;;;;;;;42.72;27.87;100495.48;117394;1186;21849;-55
2022/07/01 10:57:37;;;;;;;5.20;3.40;;;;;;;42.88;27.78;100496.64;117326;1184;21876;-56
2022/07/01 11:00:04;;;;;;;5.90;4.10;;;;;;;43.12;27.61;100496.06;117395;1183;21869;-54
2022/07/01 11:02:36;;;;;;;6.00;4.00;;;;;;;43.23;27.39;100490.74;117388;1186;23965;-54
2022/07/01 11:05:04;;;;;;;4.80;3.50;;;;;;;43.24;27.00;100487.92;117344;1186;21857;-55
2022/07/01 11:07:32;;;;;;;5.80;3.50;;;;;;;43.13;26.60;100491.95;117379;1182;21853;-55
2022/07/01 11:10:01;;;;;;;5.50;3.70;;;;;;;43.06;26.55;100493.07;117459;1182;21854;-54
2022/07/01 11:12:29;;;;;;;4.10;3.70;;;;;;;43.04;26.76;100492.09;117334;1186;21854;-54
2022/07/01 11:14:58;;;;;;;7.00;4.00;;;;;;;43.11;26.62;100494.33;117334;1186;22715;-54
2022/07/01 11:17:26;;;;;;;5.10;3.70;;;;;;;43.25;26.32;100489.22;117314;1186;22967;-55
2022/07/01 11:19:58;;;;;;;3.80;3.20;;;;;;;43.29;25.87;100491.21;117456;1186;22100;-54
2022/07/01 11:22:27;;;;;;;5.10;3.30;;;;;;;43.20;25.91;100487.40;117308;1182;23442;-55
2022/07/01 11:24:55;;;;;;;4.40;3.50;;;;;;;43.10;25.83;100483.01;117375;1186;21888;-55
2022/07/01 11:27:22;;;;;;;7.60;3.40;;;;;;;43.12;25.45;100484.10;117421;1186;23566;-56
2022/07/01 11:29:53;;;;;;;4.20;3.60;;;;;;;43.19;25.83;100476.89;117414;1183;23439;-55
2022/07/01 11:32:27;;;;;;;5.40;3.60;;;;;;;43.30;25.37;100481.30;117375;1185;23556;-55
2022/07/01 11:34:54;;;;;;;4.90;3.90;;;;;;;43.29;25.48;100479.23;117379;1186;21873;-55
2022/07/01 11:40:08;;;;;;;8.70;3.70;;;;;;;43.43;24.28;100468.87;117252;1182;24190;-54
2022/07/01 11:42:35;;;;;;;4.90;4.00;;;;;;;43.33;24.53;100469.05;117211;1188;21880;-55
2022/07/01 11:45:02;;;;;;;5.20;3.60;;;;;;;43.38;24.94;100465.70;117107;1188;21854;-56
2022/07/01 11:47:29;;;;;;;5.60;4.00;;;;;;;43.54;24.83;100463.09;117234;1187;23637;-56
2022/07/01 11:49:57;;;;;;;8.90;3.50;;;;;;;43.62;24.72;100460.75;117277;1182;24161;-57
2022/07/01 11:52:24;;;;;;;7.00;4.00;;;;;;;43.81;24.59;100460.00;117368;1183;21854;-54
2022/07/01 11:54:55;;;;;;;6.30;3.20;;;;;;;43.98;24.56;100458.86;117415;1181;22960;-56
2022/07/01 11:57:42;;;;;;;4.70;4.00;;;;;;;44.08;24.40;100459.64;117406;1185;22688;-55
2022/07/01 12:00:11;;;;;;;4.60;3.70;;;;;;;44.21;24.29;100465.66;117363;1182;21847;-55
2022/07/01 12:02:38;;;;;;;5.60;4.40;;;;;;;44.23;23.47;100465.82;117371;1185;23468;-56
2022/07/01 12:05:06;;;;;;;5.00;3.40;;;;;;;43.93;23.30;100465.81;117478;1184;22250;-56
2022/07/01 12:07:33;;;;;;;6.70;3.90;;;;;;;43.78;23.78;100462.44;117328;1188;21851;-56
2022/07/01 12:10:01;;;;;;;4.90;3.80;;;;;;;43.89;23.89;100461.98;117387;1185;23541;-54
2022/07/01 12:12:28;;;;;;;5.10;3.50;;;;;;;44.03;23.71;100457.95;117291;1184;21845;-56
2022/07/01 12:14:56;;;;;;;5.70;3.50;;;;;;;44.02;23.51;100455.20;117847;1185;21814;-55
2022/07/01 12:17:24;;;;;;;4.50;3.50;;;;;;;43.90;23.02;100449.91;118245;1186;24214;-54
2022/07/01 12:19:52;;;;;;;4.30;3.30;;;;;;;43.72;23.32;100451.16;117289;1185;24151;-55
2022/07/01 12:22:24;;;;;;;4.50;3.30;;;;;;;43.69;23.45;100450.42;117876;1181;21844;-55
2022/07/01 12:25:12;;;;;;;4.30;3.10;;;;;;;43.77;23.33;100446.06;117243;1177;21857;-55
2022/07/01 12:27:40;;;;;;;5.40;3.10;;;;;;;43.77;23.16;100447.45;117226;1185;21870;-55
2022/07/01 12:30:08;;;;;;;6.50;3.40;;;;;;;43.73;23.04;100451.17;117383;1185;23635;-55
2022/07/01 12:32:37;;;;;;;5.10;3.10;;;;;;;43.63;23.02;100449.44;117351;1183;22896;-55
2022/07/01 12:37:53;;;;;;;4.00;3.20;;;;;;;43.39;22.88;100446.94;117407;1182;21857;-56
2022/07/01 12:40:21;;;;;;;3.50;3.10;;;;;;;43.29;22.99;100446.02;117363;1182;24160;-55
2022/07/01 12:42:48;;;;;;;4.80;2.90;;;;;;;43.39;22.64;100447.67;117399;1182;21864;-55
2022/07/01 12:45:16;;;;;;;5.90;2.90;;;;;;;43.37;22.74;100447.52;117195;1185;23566;-54
2022/07/01 12:47:48;;;;;;;4.30;3.00;;;;;;;43.40;22.78;100448.85;117311;1183;24263;-54
2022/07/01 12:50:15;;;;;;;4.40;2.80;;;;;;;43.41;22.31;100450.36;117395;1186;23544;-54
2022/07/01 12:53:04;;;;;;;21.30;7.80;;;;;;;43.30;22.31;100449.91;117351;1185;23553;-55
2022/07/01 12:55:32;;;;;;;11.80;4.60;;;;;;;43.27;22.32;100448.96;117272;1183;21864;-55
2022/07/01 12:58:00;;;;;;;14.70;5.80;;;;;;;43.20;22.14;100447.58;117149;1185;23570;-55
2022/07/01 13:00:28;;;;;;;6.60;3.20;;;;;;;43.16;22.23;100447.33;117355;1185;22642;-55
2022/07/01 13:02:57;;;;;;;10.80;3.00;;;;;;;43.19;22.18;100449.80;117117;1183;23284;-55
2022/07/01 13:05:24;;;;;;;5.50;3.30;;;;;;;43.26;21.96;100446.82;117368;1186;21872;-55
2022/07/01 13:07:51;;;;;;;4.40;2.80;;;;;;;43.33;21.64;100443.18;117339;1186;22982;-54
2022/07/01 13:10:19;;;;;;;5.10;2.60;;;;;;;43.43;21.61;100441.77;117209;1182;21866;-55
2022/07/01 13:12:46;;;;;;;6.30;2.30;;;;;;;43.52;21.58;100442.40;117242;1186;23489;-53
2022/07/01 13:15:14;;;;;;;5.40;3.10;;;;;;;43.44;21.37;100441.98;117422;1182;23688;-54
2022/07/01 13:17:42;;;;;;;5.60;2.50;;;;;;;43.47;21.32;100443.06;117354;1183;23423;-53
2022/07/01 13:20:09;;;;;;;9.90;4.50;;;;;;;43.45;21.25;100438.12;117363;1185;21853;-55
2022/07/01 13:22:36;;;;;;;6.30;3.20;;;;;;;43.41;21.23;100437.46;117393;1185;21950;-54
2022/07/01 13:25:04;;;;;;;5.20;2.70;;;;;;;43.43;21.34;100434.36;117328;1183;21852;-56
2022/07/01 13:27:31;;;;;;;7.90;3.80;;;;;;;43.38;21.17;100431.40;117341;1183;21972;-54
2022/07/01 13:29:58;;;;;;;10.30;4.20;;;;;;;43.28;20.88;100433.13;117347;1184;22805;-54
2022/07/01 13:32:25;;;;;;;11.10;4.50;;;;;;;43.21;21.16;100433.59;117409;1186;21864;-55
2022/07/01 13:34:53;;;;;;;110.90;31.70;;;;;;;43.16;21.15;100433.65;117378;1183;23566;-55
2022/07/01 13:37:20;;;;;;;30.50;11.10;;;;;;;43.05;21.32;100431.39;117330;1186;23191;-55
2022/07/01 13:39:47;;;;;;;9.80;5.00;;;;;;;43.01;21.29;100427.05;117208;1185;23557;-55
2022/07/01 13:42:14;;;;;;;5.00;2.90;;;;;;;43.03;21.25;100427.48;117371;1182;22925;-55
2022/07/01 13:44:41;;;;;;;5.60;2.80;;;;;;;43.03;21.12;100423.23;117314;1186;23573;-54
2022/07/01 13:47:13;;;;;;;6.40;3.50;;;;;;;42.95;21.17;100418.14;117387;1183;23462;-54
2022/07/01 13:49:45;;;;;;;5.10;3.10;;;;;;;42.80;21.19;100417.63;117397;1186;22922;-56
2022/07/01 13:52:12;;;;;;;3.20;2.40;;;;;;;42.74;21.28;100418.68;117200;1185;21857;-54
2022/07/01 13:54:39;;;;;;;3.40;2.80;;;;;;;42.67;21.38;100418.92;117197;1188;23547;-56
2022/07/01 13:57:07;;;;;;;3.00;2.40;;;;;;;42.61;21.41;100421.73;117402;1184;23605;-55
2022/07/01 13:59:33;;;;;;;3.80;3.10;;;;;;;42.65;21.36;100419.46;117374;1183;21907;-55
2022/07/01 14:02:08;;;;;;;5.00;2.60;;;;;;;42.70;21.35;100412.59;117302;1183;22905;-56
2022/07/01 14:04:35;;;;;;;6.30;2.70;;;;;;;42.71;21.18;100408.16;117395;1186;22914;-55
2022/07/01 14:07:03;;;;;;;4.50;2.70;;;;;;;42.67;21.23;100406.42;117299;1184;23544;-56
2022/07/01 14:09:31;;;;;;;3.90;2.60;;;;;;;42.60;21.25;100407.23;117244;1187;23675;-55
2022/07/01 14:11:58;;;;;;;4.00;2.80;;;;;;;42.56;21.20;100406.98;117483;1185;23706;-56
2022/07/01 14:14:29;;;;;;;5.50;2.80;;;;;;;42.44;21.24;100405.06;117350;1185;21948;-56
2022/07/01 14:16:56;;;;;;;4.30;3.40;;;;;;;42.23;21.20;100397.19;117308;1182;21886;-57
2022/07/01 14:19:22;;;;;;;3.50;2.70;;;;;;;42.12;21.40;100394.30;118395;1185;21880;-56
2022/07/01 14:21:50;;;;;;;5.20;2.80;;;;;;;42.14;21.44;100392.02;117304;1186;23589;-55
2022/07/01 14:24:17;;;;;;;3.90;2.50;;;;;;;42.19;21.46;100391.42;117294;1182;24127;-55
2022/07/01 14:26:44;;;;;;;5.90;2.80;;;;;;;42.25;21.40;100392.75;117255;1182;22935;-55